createdAt,value
2018-03-11T00:02:26.195Z,18.90
2018-03-11T00:04:54.816Z,16.13
2018-03-11T00:07:23.377Z,17.60
2018-03-11T00:09:51.898Z,14.40
2018-03-11T00:12:21.264Z,18.47
2018-03-11T00:14:49.855Z,18.00
2018-03-11T00:17:18.421Z,19.13
2018-03-11T00:19:46.988Z,19.13
2018-03-11T00:22:15.408Z,15.80
2018-03-11T00:24:43.976Z,16.90
2018-03-11T00:27:12.593Z,17.60
2018-03-11T00:29:41.162Z,18.33
2018-03-11T00:32:09.817Z,18.13
2018-03-11T00:34:38.344Z,19.37
2018-03-11T00:37:06.911Z,23.57
2018-03-11T00:39:52.584Z,19.30
2018-03-11T00:42:21.818Z,19.50
2018-03-11T00:44:50.416Z,17.70
2018-03-11T00:47:18.958Z,19.03
2018-03-11T00:49:47.580Z,16.80
2018-03-11T00:52:16.159Z,18.17
2018-03-11T00:54:44.774Z,18.73
2018-03-11T00:57:13.356Z,21.37
2018-03-11T00:59:41.916Z,21.23
2018-03-11T01:02:10.474Z,19.23
2018-03-11T01:04:39.033Z,18.07
2018-03-11T01:07:09.010Z,19.43
2018-03-11T01:09:37.623Z,17.97
2018-03-11T01:12:06.216Z,19.33
2018-03-11T01:14:35.553Z,20.87
2018-03-11T01:17:04.160Z,22.67
2018-03-11T01:19:32.720Z,22.00
2018-03-11T01:22:01.317Z,20.90
2018-03-11T01:24:29.913Z,17.77
2018-03-11T01:26:58.828Z,19.87
2018-03-11T01:29:28.260Z,18.90
2018-03-11T01:31:56.808Z,21.37
2018-03-11T01:34:25.432Z,19.40
2018-03-11T01:36:53.984Z,16.63
2018-03-11T01:39:22.573Z,17.27
2018-03-11T01:41:51.099Z,20.13
2018-03-11T01:44:20.454Z,21.37
2018-03-11T01:46:49.037Z,23.63
2018-03-11T01:49:17.620Z,21.97
2018-03-11T01:51:46.140Z,23.10
2018-03-11T01:54:14.738Z,28.63
2018-03-11T01:56:44.106Z,22.87
2018-03-11T01:59:12.662Z,24.97
2018-03-11T02:01:41.265Z,23.83
2018-03-11T02:04:09.842Z,25.77
2018-03-11T02:06:38.435Z,28.17
2018-03-11T02:09:07.021Z,28.10
2018-03-11T02:11:35.738Z,27.37
2018-03-11T02:14:04.040Z,24.77
2018-03-11T02:16:32.600Z,28.63
2018-03-11T02:19:00.880Z,24.27
2018-03-11T02:21:29.465Z,26.07
2018-03-11T02:23:58.054Z,26.53
2018-03-11T02:26:26.578Z,27.53
2018-03-11T02:28:55.921Z,27.50
2018-03-11T02:31:24.478Z,29.27
2018-03-11T02:33:53.037Z,28.93
2018-03-11T02:36:21.774Z,29.00
2018-03-11T02:38:50.342Z,29.43
2018-03-11T02:41:18.946Z,32.23
2018-03-11T02:43:47.523Z,25.90
2018-03-11T02:46:16.114Z,26.80
2018-03-11T02:48:44.711Z,28.37
2018-03-11T02:51:13.275Z,30.87
2018-03-11T02:53:41.870Z,27.03
2018-03-11T02:56:10.434Z,26.60
2018-03-11T02:58:39.789Z,31.63
2018-03-11T03:01:08.365Z,34.83
2018-03-11T03:03:36.958Z,34.37
2018-03-11T03:06:05.601Z,34.53
2018-03-11T03:08:34.189Z,33.40
2018-03-11T03:11:02.868Z,29.63
2018-03-11T03:13:32.287Z,30.03
2018-03-11T03:16:00.898Z,33.13
2018-03-11T03:18:29.499Z,33.70
2018-03-11T03:20:58.078Z,32.80
2018-03-11T03:23:26.587Z,29.20
2018-03-11T03:25:55.190Z,33.03
2018-03-11T03:28:24.537Z,31.90
2018-03-11T03:30:53.194Z,28.20
2018-03-11T03:33:21.972Z,31.30
2018-03-11T03:35:51.313Z,30.70
2018-03-11T03:38:20.042Z,24.50
2018-03-11T03:40:48.612Z,24.37
2018-03-11T03:43:17.202Z,22.23
2018-03-11T03:45:45.760Z,21.63
2018-03-11T03:48:14.409Z,20.87
2018-03-11T03:50:43.005Z,20.30
2018-03-11T03:53:12.349Z,20.20
2018-03-11T03:55:40.956Z,19.73
2018-03-11T03:58:09.543Z,20.00
2018-03-11T04:00:38.130Z,21.17
2018-03-11T04:03:06.726Z,19.97
2018-03-11T04:05:35.339Z,18.43
2018-03-11T04:08:04.708Z,18.40
2018-03-11T04:10:33.294Z,20.23
2018-03-11T04:13:01.881Z,19.63
2018-03-11T04:15:30.441Z,17.67
2018-03-11T04:17:59.102Z,15.27
2018-03-11T04:20:27.803Z,18.90
2018-03-11T04:22:56.409Z,19.03
2018-03-11T04:25:24.965Z,21.07
2018-03-11T04:27:53.539Z,23.83
2018-03-11T04:30:22.879Z,24.03
2018-03-11T04:32:51.456Z,20.60
2018-03-11T04:35:20.051Z,22.17
2018-03-11T04:37:48.655Z,21.23
2018-03-11T04:40:17.220Z,23.53
2018-03-11T04:42:45.778Z,22.07
2018-03-11T04:45:15.143Z,23.33
2018-03-11T04:47:43.740Z,25.70
2018-03-11T04:50:12.314Z,27.63
2018-03-11T04:52:40.922Z,29.37
2018-03-11T04:55:09.482Z,29.87
2018-03-11T04:57:38.059Z,30.20
2018-03-11T05:00:06.802Z,26.77
2018-03-11T05:02:36.160Z,24.33
2018-03-11T05:05:04.473Z,25.60
2018-03-11T05:07:33.056Z,24.80
2018-03-11T05:10:01.640Z,23.70
2018-03-11T05:12:30.180Z,22.73
2018-03-11T05:14:58.755Z,23.37
2018-03-11T05:17:27.317Z,30.47
2018-03-11T05:19:55.899Z,30.57
2018-03-11T05:22:25.229Z,31.27
2018-03-11T05:24:53.794Z,27.23
2018-03-11T05:27:23.246Z,26.83
2018-03-11T05:29:51.778Z,28.00
2018-03-11T05:32:21.147Z,28.37
2018-03-11T05:34:49.708Z,26.17
2018-03-11T05:37:18.274Z,27.27
2018-03-11T05:39:58.986Z,25.30
2018-03-11T05:42:27.580Z,24.37
2018-03-11T05:44:56.179Z,24.50
2018-03-11T05:47:24.794Z,22.47
2018-03-11T05:49:53.348Z,24.50
2018-03-11T05:52:21.945Z,24.63
2018-03-11T05:54:50.508Z,26.37
2018-03-11T05:57:19.110Z,25.43
2018-03-11T05:59:47.713Z,25.50
2018-03-11T06:02:17.010Z,24.60
2018-03-11T06:04:45.597Z,24.00
2018-03-11T06:07:14.930Z,22.20
2018-03-11T06:09:43.521Z,23.37
2018-03-11T06:12:12.066Z,22.80
2018-03-11T06:14:40.647Z,24.17
2018-03-11T06:17:09.212Z,22.83
2018-03-11T06:19:37.802Z,24.47
2018-03-11T06:22:06.410Z,24.00
2018-03-11T06:24:34.957Z,23.50
2018-03-11T06:27:03.567Z,24.00
2018-03-11T06:29:32.089Z,23.73
2018-03-11T06:32:01.418Z,23.23
2018-03-11T06:34:29.981Z,23.57
2018-03-11T06:36:59.309Z,23.30
2018-03-11T06:39:27.850Z,22.00
2018-03-11T06:41:57.193Z,22.27
2018-03-11T06:44:25.776Z,21.53
2018-03-11T06:46:54.402Z,20.87
2018-03-11T06:49:22.972Z,21.67
2018-03-11T06:51:51.555Z,21.93
2018-03-11T06:54:20.297Z,21.30
2018-03-11T06:56:49.733Z,21.90
2018-03-11T06:59:18.339Z,21.27
2018-03-11T07:01:46.908Z,20.67
2018-03-11T07:04:15.485Z,21.33
2018-03-11T07:06:44.044Z,20.90
2018-03-11T07:09:12.621Z,22.50
2018-03-11T07:11:41.211Z,22.80
2018-03-11T07:14:10.554Z,22.60
2018-03-11T07:16:39.124Z,22.00
2018-03-11T07:19:08.468Z,19.47
2018-03-11T07:21:37.051Z,22.77
2018-03-11T07:24:05.317Z,20.70
2018-03-11T07:26:33.915Z,20.97
2018-03-11T07:29:02.484Z,19.23
2018-03-11T07:31:31.046Z,21.17
2018-03-11T07:34:00.379Z,18.77
2018-03-11T07:36:28.935Z,19.30
2018-03-11T07:38:58.288Z,18.43
2018-03-11T07:41:26.932Z,18.23
2018-03-11T07:43:55.667Z,18.20
2018-03-11T07:46:24.236Z,19.23
2018-03-11T07:48:52.790Z,19.37
2018-03-11T07:51:21.509Z,19.33
2018-03-11T07:53:50.152Z,16.93
2018-03-11T07:56:19.484Z,17.77
2018-03-11T07:58:48.027Z,16.50
2018-03-11T08:01:16.624Z,16.20
2018-03-11T08:03:45.205Z,14.43
2018-03-11T08:06:13.460Z,14.30
2018-03-11T08:08:42.097Z,12.17
2018-03-11T08:11:10.653Z,11.47
2018-03-11T08:13:39.240Z,11.67
2018-03-11T08:16:07.804Z,10.57
2018-03-11T08:18:36.411Z,13.33
2018-03-11T08:21:04.974Z,10.67
2018-03-11T08:23:33.560Z,7.93
2018-03-11T08:26:02.124Z,11.37
2018-03-11T08:28:30.728Z,9.13
2018-03-11T08:30:59.297Z,8.23
2018-03-11T08:33:27.829Z,8.97
2018-03-11T08:35:56.384Z,7.93
2018-03-11T08:38:24.910Z,7.87
2018-03-11T08:40:54.251Z,7.67
2018-03-11T08:43:22.818Z,7.50
2018-03-11T08:45:51.328Z,7.00
2018-03-11T08:48:19.916Z,6.97
2018-03-11T08:50:48.432Z,7.90
2018-03-11T08:53:17.025Z,7.07
2018-03-11T08:55:45.591Z,6.90
2018-03-11T08:58:14.154Z,7.10
2018-03-11T09:00:42.695Z,7.00
2018-03-11T09:03:12.020Z,6.73
2018-03-11T09:05:40.532Z,6.27
2018-03-11T09:08:09.106Z,6.33
2018-03-11T09:10:37.670Z,6.43
2018-03-11T09:13:05.921Z,6.70
2018-03-11T09:15:34.504Z,5.80
2018-03-11T09:18:03.048Z,5.50
2018-03-11T09:20:31.969Z,5.53
2018-03-11T09:23:00.525Z,5.07
2018-03-11T09:25:29.206Z,5.00
2018-03-11T09:27:57.860Z,4.60
2018-03-11T09:30:26.472Z,4.63
2018-03-11T09:32:55.056Z,4.67
2018-03-11T09:35:23.632Z,4.90
2018-03-11T09:37:51.892Z,3.50
2018-03-11T09:40:21.189Z,3.97
2018-03-11T09:42:49.785Z,4.33
2018-03-11T09:45:19.165Z,3.67
2018-03-11T09:47:47.742Z,3.60
2018-03-11T09:50:16.310Z,4.40
2018-03-11T09:52:44.868Z,4.00
2018-03-11T09:55:13.481Z,4.80
2018-03-11T09:57:42.073Z,4.07
2018-03-11T10:00:11.673Z,5.07
2018-03-11T10:02:40.223Z,5.03
2018-03-11T10:05:09.684Z,5.10
2018-03-11T10:07:38.255Z,4.60
2018-03-11T10:10:06.937Z,4.70
2018-03-11T10:12:35.604Z,4.70
2018-03-11T10:15:04.602Z,4.73
2018-03-11T10:17:33.185Z,4.33
2018-03-11T10:20:01.763Z,4.20
2018-03-11T10:22:31.117Z,4.63
2018-03-11T10:24:59.713Z,5.67
2018-03-11T10:27:28.323Z,5.23
2018-03-11T10:29:56.906Z,5.37
2018-03-11T10:32:25.554Z,5.47
2018-03-11T10:34:54.153Z,5.10
2018-03-11T10:37:22.744Z,5.47
2018-03-11T10:39:51.343Z,5.27
2018-03-11T10:42:19.912Z,5.80
2018-03-11T10:44:48.493Z,5.67
2018-03-11T10:47:17.069Z,5.80
2018-03-11T10:49:45.671Z,5.40
2018-03-11T10:52:14.243Z,4.97
2018-03-11T10:54:42.785Z,5.33
2018-03-11T10:57:12.261Z,5.27
2018-03-11T10:59:40.792Z,4.90
2018-03-11T11:02:21.691Z,4.73
2018-03-11T11:04:55.672Z,5.33
2018-03-11T11:07:28.638Z,5.10
2018-03-11T11:09:57.203Z,5.17
2018-03-11T11:12:27.804Z,5.80
2018-03-11T11:14:56.439Z,5.40
2018-03-11T11:17:25.025Z,5.33
2018-03-11T11:19:53.597Z,6.20
2018-03-11T11:22:22.178Z,6.60
2018-03-11T11:24:50.784Z,5.70
2018-03-11T11:27:21.897Z,6.47
2018-03-11T11:30:08.262Z,5.70
2018-03-11T11:32:37.471Z,5.67
2018-03-11T11:35:06.064Z,4.90
2018-03-11T11:37:34.702Z,4.77
2018-03-11T11:40:03.411Z,4.50
2018-03-11T11:42:38.132Z,4.57
2018-03-11T11:45:06.693Z,4.13
2018-03-11T11:47:35.299Z,4.37
2018-03-11T11:50:03.849Z,4.40
2018-03-11T11:52:32.412Z,4.43
2018-03-11T11:55:00.950Z,4.43
2018-03-11T11:57:29.527Z,4.47
2018-03-11T11:59:58.126Z,3.70
2018-03-11T12:02:26.802Z,4.00
2018-03-11T12:04:55.406Z,4.10
2018-03-11T12:07:23.994Z,3.30
2018-03-11T12:09:52.595Z,3.80
2018-03-11T12:12:21.141Z,4.73
2018-03-11T12:14:49.727Z,4.00
2018-03-11T12:17:18.314Z,3.03
2018-03-11T12:19:46.912Z,3.40
2018-03-11T12:22:15.520Z,4.50
2018-03-11T12:24:44.821Z,6.63
2018-03-11T12:27:13.444Z,6.10
2018-03-11T12:29:43.269Z,3.93
2018-03-11T12:32:15.633Z,3.40
2018-03-11T12:34:44.145Z,4.17
2018-03-11T12:37:12.709Z,2.93
2018-03-11T12:39:41.320Z,2.77
2018-03-11T12:42:10.029Z,2.87
2018-03-11T12:44:38.618Z,2.47
2018-03-11T12:47:07.328Z,2.30
2018-03-11T12:49:36.765Z,2.20
2018-03-11T12:52:05.284Z,2.27
2018-03-11T12:54:33.977Z,2.27
2018-03-11T12:57:03.539Z,1.90
2018-03-11T12:59:32.166Z,2.50
2018-03-11T13:02:01.759Z,2.20
2018-03-11T13:04:30.357Z,2.20
2018-03-11T13:07:06.001Z,2.87
2018-03-11T13:09:34.698Z,2.77
2018-03-11T13:12:03.516Z,2.60
2018-03-11T13:14:37.729Z,2.27
2018-03-11T13:17:06.346Z,2.10
2018-03-11T13:19:34.892Z,2.73
2018-03-11T13:22:03.470Z,2.70
2018-03-11T13:24:32.002Z,2.70
2018-03-11T13:27:00.650Z,2.20
2018-03-11T13:29:29.288Z,2.27
2018-03-11T13:32:09.177Z,2.67
2018-03-11T13:34:37.775Z,3.40
2018-03-11T13:37:06.311Z,3.10
2018-03-11T13:39:46.371Z,3.17
2018-03-11T13:42:14.952Z,3.10
2018-03-11T13:44:42.911Z,2.97
2018-03-11T13:47:13.602Z,3.00
2018-03-11T13:49:42.205Z,2.67
2018-03-11T13:52:21.860Z,2.77
2018-03-11T13:54:51.230Z,3.03
2018-03-11T14:00:32.057Z,2.80
2018-03-11T14:03:00.713Z,2.70
2018-03-11T14:05:29.252Z,14.83
2018-03-11T14:07:57.885Z,13.40
2018-03-11T14:10:26.410Z,6.67
2018-03-11T14:12:55.682Z,3.43
2018-03-11T14:15:24.196Z,2.73
2018-03-11T14:17:53.448Z,2.37
2018-03-11T14:20:22.052Z,2.50
2018-03-11T14:22:50.577Z,2.90
2018-03-11T14:25:19.855Z,5.63
2018-03-11T14:27:48.380Z,2.50
2018-03-11T14:30:16.887Z,2.60
2018-03-11T14:32:45.414Z,3.30
2018-03-11T14:35:13.905Z,3.50
2018-03-11T14:37:53.460Z,2.90
2018-03-11T14:40:22.744Z,2.30
2018-03-11T14:42:52.025Z,3.00
2018-03-11T14:45:22.405Z,2.30
2018-03-11T14:47:50.952Z,2.40
2018-03-11T14:50:19.719Z,3.20
2018-03-11T14:52:48.216Z,4.90
2018-03-11T14:55:18.008Z,3.23
2018-03-11T14:57:47.522Z,3.40
2018-03-11T15:00:17.087Z,10.63
2018-03-11T15:02:46.634Z,14.40
2018-03-11T15:05:16.204Z,118.77
2018-03-11T15:07:45.740Z,5.73
2018-03-11T15:10:15.307Z,2.63
2018-03-11T15:12:44.943Z,5.40
2018-03-11T15:15:14.490Z,4.60
2018-03-11T15:17:44.029Z,3.80
2018-03-11T15:20:13.558Z,3.70
2018-03-11T15:22:43.094Z,2.63
2018-03-11T15:25:12.634Z,3.13
2018-03-11T15:27:42.207Z,3.87
2018-03-11T15:30:11.730Z,2.60
2018-03-11T15:32:41.291Z,3.97
2018-03-11T15:35:10.848Z,2.50
2018-03-11T15:37:40.455Z,2.63
2018-03-11T15:40:10.189Z,3.20
2018-03-11T15:42:40.340Z,3.57
2018-03-11T15:45:09.872Z,3.90
2018-03-11T15:47:39.233Z,3.50
2018-03-11T15:50:08.767Z,3.43
2018-03-11T15:52:38.309Z,3.50
2018-03-11T15:55:07.807Z,3.60
2018-03-11T15:57:37.334Z,3.70
2018-03-11T16:00:06.867Z,4.70
2018-03-11T16:02:36.414Z,4.07
2018-03-11T16:05:06.002Z,4.73
2018-03-11T16:07:36.553Z,4.87
2018-03-11T16:10:06.100Z,5.00
2018-03-11T16:12:35.645Z,3.97
2018-03-11T16:15:05.196Z,9.03
2018-03-11T16:17:34.934Z,6.10
2018-03-11T16:20:04.504Z,4.70
2018-03-11T16:22:34.048Z,4.23
2018-03-11T16:25:03.609Z,3.30
2018-03-11T16:27:33.198Z,3.50
2018-03-11T16:30:02.741Z,4.37
2018-03-11T16:32:32.277Z,3.67
2018-03-11T16:35:01.805Z,8.80
2018-03-11T16:37:31.385Z,6.63
2018-03-11T16:40:03.566Z,4.90
2018-03-11T16:42:34.518Z,3.23
2018-03-11T16:45:07.631Z,2.93
2018-03-11T16:47:38.188Z,4.13
2018-03-11T16:50:07.799Z,4.20
2018-03-11T16:52:40.441Z,4.90
2018-03-11T16:55:10.229Z,4.13
2018-03-11T16:57:40.484Z,3.73
2018-03-11T17:00:14.011Z,4.30
2018-03-11T17:02:43.545Z,2.80
2018-03-11T17:05:13.048Z,2.70
2018-03-11T17:07:43.566Z,3.83
2018-03-11T17:10:13.064Z,3.87
2018-03-11T17:12:42.598Z,5.23
2018-03-11T17:15:12.107Z,6.60
2018-03-11T17:17:44.623Z,5.77
2018-03-11T17:20:14.009Z,6.87
2018-03-11T17:22:43.549Z,6.53
2018-03-11T17:25:13.112Z,6.27
2018-03-11T17:27:42.753Z,6.63
2018-03-11T17:30:12.324Z,5.50
2018-03-11T17:32:41.872Z,5.40
2018-03-11T17:35:11.414Z,6.10
2018-03-11T17:37:40.907Z,5.97
2018-03-11T17:40:10.431Z,5.20
2018-03-11T17:42:40.072Z,5.10
2018-03-11T17:45:09.604Z,3.77
2018-03-11T17:47:39.102Z,5.40
2018-03-11T17:50:08.666Z,10.70
2018-03-11T17:52:38.208Z,9.83
2018-03-11T17:55:08.712Z,7.20
2018-03-11T17:57:38.240Z,5.57
2018-03-11T18:00:07.768Z,5.10
2018-03-11T18:02:38.032Z,4.43
2018-03-11T18:05:13.380Z,4.53
2018-03-11T18:07:42.916Z,4.97
2018-03-11T18:10:12.462Z,3.57
2018-03-11T18:12:42.102Z,4.03
2018-03-11T18:15:10.760Z,3.70
2018-03-11T18:17:39.351Z,3.47
2018-03-11T18:20:07.854Z,4.30
2018-03-11T18:22:36.383Z,6.27
2018-03-11T18:25:04.908Z,6.00
2018-03-11T18:27:33.470Z,8.57
2018-03-11T18:30:02.761Z,7.70
2018-03-11T18:32:39.346Z,8.40
2018-03-11T18:35:08.664Z,8.00
2018-03-11T18:37:37.206Z,7.90
2018-03-11T18:40:05.408Z,7.70
2018-03-11T18:42:33.955Z,6.70
2018-03-11T18:45:03.588Z,6.47
2018-03-11T18:47:32.076Z,6.37
2018-03-11T18:50:00.654Z,5.90
2018-03-11T18:52:30.134Z,6.77
2018-03-11T18:54:58.648Z,5.23
2018-03-11T18:57:27.148Z,6.60
2018-03-11T18:59:55.789Z,7.13
2018-03-11T19:02:24.284Z,8.63
2018-03-11T19:04:52.792Z,8.10
2018-03-11T19:07:21.413Z,6.80
2018-03-11T19:09:49.917Z,5.80
2018-03-11T19:12:18.429Z,5.47
2018-03-11T19:14:46.943Z,5.60
2018-03-11T19:17:22.556Z,7.30
2018-03-11T19:19:51.091Z,7.33
2018-03-11T19:22:19.664Z,5.43
2018-03-11T19:24:48.974Z,7.20
2018-03-11T19:27:17.588Z,9.90
2018-03-11T19:29:46.173Z,12.40
2018-03-11T19:32:14.782Z,12.83
2018-03-11T19:34:43.376Z,14.27
2018-03-11T19:37:12.030Z,13.20
2018-03-11T19:39:40.648Z,9.87
2018-03-11T19:42:09.262Z,9.47
2018-03-11T19:44:38.004Z,7.77
2018-03-11T19:47:06.588Z,7.20
2018-03-11T19:49:35.148Z,8.23
2018-03-11T19:52:14.256Z,8.30
2018-03-11T19:54:42.840Z,9.47
2018-03-11T19:57:11.420Z,11.00
2018-03-11T19:59:46.236Z,16.40
2018-03-11T20:02:14.835Z,15.43
2018-03-11T20:04:43.421Z,14.97
2018-03-11T20:07:22.748Z,9.70
2018-03-11T20:09:51.348Z,10.47
2018-03-11T20:12:19.910Z,11.20
2018-03-11T20:14:48.476Z,13.70
2018-03-11T20:17:17.041Z,12.03
2018-03-11T20:19:46.047Z,10.67
2018-03-11T20:22:14.623Z,6.53
2018-03-11T20:24:43.308Z,5.67
2018-03-11T20:27:11.876Z,6.40
2018-03-11T20:29:40.460Z,7.47
2018-03-11T20:32:09.825Z,7.47
2018-03-11T20:34:39.492Z,7.00
2018-03-11T20:37:08.075Z,7.80
2018-03-11T20:39:36.628Z,9.73
2018-03-11T20:42:05.277Z,7.57
2018-03-11T20:44:33.865Z,6.67
2018-03-11T20:47:02.449Z,8.47
2018-03-11T20:49:34.056Z,8.10
2018-03-11T20:52:02.618Z,7.93
2018-03-11T20:54:31.238Z,7.63
2018-03-11T20:57:00.637Z,8.63
2018-03-11T20:59:29.235Z,11.57
2018-03-11T21:01:58.601Z,25.03
2018-03-11T21:04:27.197Z,20.67
2018-03-11T21:06:55.829Z,15.07
2018-03-11T21:09:24.389Z,9.93
2018-03-11T21:11:53.739Z,7.00
2018-03-11T21:14:22.326Z,8.90
2018-03-11T21:16:50.969Z,11.20
2018-03-11T21:19:19.541Z,7.57
2018-03-11T21:21:48.098Z,7.50
2018-03-11T21:24:16.701Z,9.93
2018-03-11T21:26:45.230Z,14.23
2018-03-11T21:29:13.817Z,9.17
2018-03-11T21:31:42.445Z,6.70
2018-03-11T21:34:10.382Z,5.80
2018-03-11T21:36:38.951Z,5.40
2018-03-11T21:39:08.330Z,5.30
2018-03-11T21:41:36.916Z,6.23
2018-03-11T21:44:05.518Z,7.00
2018-03-11T21:46:36.181Z,6.00
2018-03-11T21:49:04.770Z,7.30
2018-03-11T21:51:33.345Z,10.43
2018-03-11T21:54:02.649Z,9.27
2018-03-11T21:56:31.091Z,8.93
2018-03-11T21:58:59.676Z,9.97
2018-03-11T22:01:28.128Z,12.87
2018-03-11T22:03:56.684Z,9.13
2018-03-11T22:06:25.367Z,8.83
2018-03-11T22:08:54.707Z,7.63
2018-03-11T22:11:23.265Z,6.60
2018-03-11T22:13:51.808Z,5.83
2018-03-11T22:16:32.153Z,5.77
2018-03-11T22:19:00.712Z,5.40
2018-03-11T22:21:29.254Z,6.13
2018-03-11T22:23:57.841Z,6.13
2018-03-11T22:26:26.441Z,5.70
2018-03-11T22:28:55.034Z,5.73
2018-03-11T22:31:23.636Z,5.90
2018-03-11T22:33:52.049Z,6.17
2018-03-11T22:36:20.649Z,5.57
2018-03-11T22:38:49.191Z,5.90
2018-03-11T22:41:17.816Z,5.97
2018-03-11T22:43:46.332Z,6.03
2018-03-11T22:46:14.911Z,6.80
2018-03-11T22:48:44.429Z,11.80
2018-03-11T22:51:13.044Z,9.50
2018-03-11T22:53:41.645Z,12.03
2018-03-11T22:56:10.217Z,15.60
2018-03-11T22:59:01.408Z,15.20
2018-03-11T23:01:30.728Z,11.20
2018-03-11T23:03:59.294Z,8.33
2018-03-11T23:06:28.606Z,6.50
2018-03-11T23:08:57.241Z,6.90
2018-03-11T23:11:26.007Z,6.63
2018-03-11T23:13:54.566Z,7.27
2018-03-11T23:16:23.850Z,6.53
2018-03-11T23:19:03.535Z,7.07
2018-03-11T23:21:32.130Z,7.10
2018-03-11T23:24:00.688Z,6.43
2018-03-11T23:26:29.287Z,6.47
2018-03-11T23:28:57.849Z,7.50
2018-03-11T23:31:26.465Z,7.53
2018-03-11T23:33:55.039Z,6.70
2018-03-11T23:36:24.381Z,6.77
2018-03-11T23:38:52.953Z,7.17
2018-03-11T23:41:21.507Z,6.90
2018-03-11T23:43:50.810Z,6.67
2018-03-11T23:46:19.575Z,6.63
2018-03-11T23:48:48.164Z,7.67
2018-03-11T23:51:16.766Z,7.53
2018-03-11T23:53:45.349Z,7.67
2018-03-11T23:56:13.929Z,7.83
2018-03-11T23:58:42.513Z,6.50
